Time;durP1;ratioP1;P1;durP2;ratioP2;P2;SDS_P1;SDS_P2;PMS_P1;PMS_P2;Temp;Humidity;BMP_temperature;BMP_pressure;BME280_temperature;BME280_humidity;BME280_pressure;Samples;Min_cycle;Max_cycle;Signal;HPM_P1;HPM_P2
2022/04/28 00:02:19;;;;;;;8.68;4.63;;;;;;;13.10;87.11;100717.84;5069780;28;20040;-76
2022/04/28 00:04:45;;;;;;;7.80;5.35;;;;;;;13.24;86.37;100703.72;5088180;28;20300;-82
2022/04/28 00:07:10;;;;;;;9.63;4.40;;;;;;;13.26;86.44;100733.59;5085762;28;20700;-86
2022/04/28 00:09:36;;;;;;;7.40;5.20;;;;;;;12.96;86.71;100709.16;5085481;28;20139;-81
2022/04/28 00:12:03;;;;;;;8.25;6.22;;;;;;;13.03;87.15;100724.03;5068089;28;20092;-78
2022/04/28 00:14:30;;;;;;;9.02;6.45;;;;;;;13.44;85.79;100738.78;5068390;28;20053;-76
2022/04/28 00:16:55;;;;;;;8.43;6.22;;;;;;;12.98;87.17;100725.81;5065917;28;20140;-75
2022/04/28 00:19:21;;;;;;;7.30;5.75;;;;;;;12.89;86.99;100707.44;5066749;28;20024;-79
2022/04/28 00:21:47;;;;;;;11.75;6.35;;;;;;;12.84;87.31;100712.72;5064227;28;20376;-75
2022/04/28 00:24:12;;;;;;;8.70;4.68;;;;;;;12.95;86.81;100717.06;5067697;28;20051;-85
2022/04/28 00:26:38;;;;;;;8.18;4.88;;;;;;;13.31;85.92;100721.28;5063487;28;20052;-79
2022/04/28 00:29:03;;;;;;;9.65;5.28;;;;;;;13.32;85.63;100703.69;5063693;28;20631;-76
2022/04/28 00:31:29;;;;;;;9.60;6.55;;;;;;;13.49;84.96;100704.47;5068188;28;20039;-75
2022/04/28 00:33:55;;;;;;;10.25;6.53;;;;;;;13.12;85.13;100648.47;5067716;28;20048;-80
2022/04/28 00:36:21;;;;;;;9.52;5.47;;;;;;;13.54;84.48;100670.19;5064995;28;20044;-76
2022/04/28 00:38:47;;;;;;;7.00;5.40;;;;;;;13.47;84.20;100691.31;5068474;28;20036;-77
2022/04/28 00:41:13;;;;;;;15.63;5.60;;;;;;;13.44;85.41;100699.25;5066659;28;20051;-77
2022/04/28 00:43:53;;;;;;;6.90;5.20;;;;;;;13.33;84.71;100658.03;5063537;28;20052;-78
2022/04/28 00:46:20;;;;;;;10.65;6.85;;;;;;;13.38;84.93;100675.56;5064372;28;20056;-75
2022/04/28 00:51:31;;;;;;;8.75;5.80;;;;;;;13.36;84.25;100647.47;5067017;28;20494;-75
2022/04/28 00:53:59;;;;;;;6.32;5.45;;;;;;;13.30;84.69;100651.03;5062894;28;20053;-79
2022/04/28 00:56:28;;;;;;;7.93;5.45;;;;;;;13.47;84.94;100674.63;5062488;28;20123;-81
2022/04/28 00:58:55;;;;;;;11.13;6.15;;;;;;;13.22;84.82;100671.25;5060268;28;20031;-76
2022/04/28 01:01:21;;;;;;;8.43;5.65;;;;;;;13.00;86.13;100679.28;5063456;28;20055;-76
2022/04/28 01:03:48;;;;;;;9.13;6.50;;;;;;;13.12;85.45;100674.81;5063635;28;20048;-77
2022/04/28 01:06:14;;;;;;;8.43;5.20;;;;;;;13.37;85.38;100691.38;5061523;28;20051;-76
2022/04/28 01:08:40;;;;;;;9.88;5.38;;;;;;;12.70;86.34;100638.19;5061907;28;20424;-79
2022/04/28 01:11:07;;;;;;;8.77;6.15;;;;;;;13.15;86.32;100693.25;5076090;28;21002;-76
2022/04/28 01:13:33;;;;;;;14.30;6.45;;;;;;;12.92;86.26;100674.94;5080051;28;20032;-79
2022/04/28 01:15:59;;;;;;;9.93;5.80;;;;;;;12.92;85.96;100664.41;5067054;28;20044;-77
2022/04/28 01:18:24;;;;;;;13.25;6.20;;;;;;;13.40;85.24;100700.13;5063207;28;20036;-75
2022/04/28 01:20:50;;;;;;;9.45;6.38;;;;;;;13.44;84.91;100701.88;5066905;28;20184;-75
2022/04/28 01:23:18;;;;;;;8.68;6.15;;;;;;;13.28;85.48;100716.91;5071007;28;20483;-76
2022/04/28 01:25:44;;;;;;;7.05;5.57;;;;;;;13.15;84.46;100675.66;5084121;28;20040;-73
2022/04/28 01:28:10;;;;;;;11.27;6.38;;;;;;;13.38;84.86;100741.44;5079137;28;20044;-75
2022/04/28 01:30:37;;;;;;;13.10;5.65;;;;;;;13.04;85.80;100751.25;5073411;28;20545;-81
2022/04/28 01:33:04;;;;;;;7.03;5.72;;;;;;;13.22;85.83;100776.66;5081435;28;20052;-85
2022/04/28 01:35:30;;;;;;;10.18;6.28;;;;;;;12.82;85.79;100751.34;5063345;28;20051;-76
2022/04/28 01:37:56;;;;;;;7.30;5.82;;;;;;;13.04;85.51;100772.31;5066576;28;20396;-75
2022/04/28 01:40:22;;;;;;;10.27;5.63;;;;;;;13.40;83.88;100804.72;5064696;28;20144;-75
2022/04/28 01:42:48;;;;;;;11.02;5.35;;;;;;;13.41;83.38;100815.22;5077709;28;20132;-79
2022/04/28 01:45:14;;;;;;;7.72;6.10;;;;;;;13.65;82.62;100834.44;5079668;28;20178;-73
2022/04/28 01:47:40;;;;;;;9.70;6.72;;;;;;;13.64;82.34;100836.19;5067171;28;20048;-77
2022/04/28 01:50:09;;;;;;;8.82;5.32;;;;;;;14.00;81.39;100887.00;5076588;28;20050;-80
2022/04/28 01:55:19;;;;;;;9.07;5.63;;;;;;;13.92;81.29;100887.03;5080343;28;20047;-77
2022/04/28 01:57:46;;;;;;;9.48;4.50;;;;;;;13.91;81.98;100877.38;5065948;28;21285;-76
2022/04/28 02:00:13;;;;;;;11.02;5.43;;;;;;;13.66;83.43;100844.97;5066210;28;20048;-78
2022/04/28 02:02:38;;;;;;;7.00;5.20;;;;;;;13.44;84.06;100831.03;5080517;28;20050;-77
2022/04/28 02:05:06;;;;;;;12.95;6.03;;;;;;;12.86;86.74;100825.97;5077353;28;20036;-75
2022/04/28 02:07:32;;;;;;;8.02;5.65;;;;;;;12.89;87.17;100836.47;5079868;28;20127;-76
2022/04/28 02:09:58;;;;;;;8.15;5.18;;;;;;;12.60;87.64;100812.88;5081391;28;21677;-75
2022/04/28 02:12:25;;;;;;;11.35;5.47;;;;;;;12.83;88.66;100850.56;5078534;28;20067;-77
2022/04/28 02:14:51;;;;;;;5.82;4.82;;;;;;;12.82;89.41;100847.91;5080990;28;20120;-76
2022/04/28 02:17:22;;;;;;;7.55;4.70;;;;;;;12.56;89.45;100809.34;5062418;28;20131;-85
2022/04/28 02:19:54;;;;;;;7.88;4.25;;;;;;;12.61;89.30;100814.59;5081504;28;20042;-77
2022/04/28 02:22:21;;;;;;;7.47;6.53;;;;;;;13.00;88.95;100839.97;5081068;28;20040;-79
2022/04/28 02:24:47;;;;;;;7.65;5.38;;;;;;;12.68;89.67;100819.84;5077402;28;20044;-77
2022/04/28 02:27:20;;;;;;;9.35;5.60;;;;;;;12.75;89.83;100852.31;5078816;28;20048;-77
2022/04/28 02:29:46;;;;;;;9.13;5.25;;;;;;;12.63;90.46;100826.88;5063540;28;20068;-78
2022/04/28 02:32:11;;;;;;;8.07;5.50;;;;;;;12.78;90.15;100836.53;5065734;28;20083;-76
2022/04/28 02:34:37;;;;;;;9.48;5.72;;;;;;;12.39;90.99;100812.00;5081643;28;20123;-81
2022/04/28 02:37:03;;;;;;;8.43;5.03;;;;;;;12.51;91.01;100789.19;5080947;28;20075;-84
2022/04/28 02:39:28;;;;;;;9.93;5.32;;;;;;;12.40;91.84;100802.34;5061599;28;20126;-78
2022/04/28 02:41:54;;;;;;;8.85;5.60;;;;;;;12.11;93.16;100787.47;5066918;28;21013;-76
2022/04/28 02:44:20;;;;;;;9.93;5.60;;;;;;;12.16;94.24;100804.13;5064693;28;20051;-76
2022/04/28 02:46:48;;;;;;;7.80;5.75;;;;;;;12.06;94.98;100786.59;5082658;28;20462;-78
2022/04/28 02:49:17;;;;;;;11.65;5.72;;;;;;;12.17;95.23;100805.00;5081256;28;20064;-76
2022/04/28 02:51:43;;;;;;;11.63;7.07;;;;;;;12.33;94.82;100808.50;5070084;28;20050;-78
2022/04/28 02:54:09;;;;;;;10.05;6.13;;;;;;;12.35;95.56;100828.69;5062229;28;20052;-75
2022/04/28 02:56:35;;;;;;;10.55;6.38;;;;;;;12.37;96.15;100847.97;5080150;28;20032;-75
2022/04/28 02:59:00;;;;;;;11.43;5.65;;;;;;;12.31;96.96;100833.94;5067428;28;20135;-75
2022/04/28 03:01:26;;;;;;;9.85;5.75;;;;;;;12.12;98.08;100819.91;5070484;28;20027;-83
2022/04/28 03:03:53;;;;;;;7.88;5.88;;;;;;;11.91;99.29;100776.06;5065704;28;20039;-76
2022/04/28 03:11:49;;;;;;;9.32;6.50;;;;;;;11.75;100.00;100733.97;5082732;28;20544;-78
2022/04/28 03:14:16;;;;;;;12.80;7.15;;;;;;;11.72;100.00;100718.19;5082239;28;20048;-79
2022/04/28 03:16:41;;;;;;;14.35;8.18;;;;;;;11.94;100.00;100724.38;5081787;28;20081;-79
2022/04/28 03:19:08;;;;;;;9.50;7.65;;;;;;;12.39;100.00;100756.75;5066026;28;20138;-74
2022/04/28 03:21:34;;;;;;;12.18;7.10;;;;;;;12.56;100.00;100742.66;5081529;28;20055;-78
2022/04/28 03:24:00;;;;;;;17.67;8.18;;;;;;;12.41;100.00;100730.44;5084104;28;20078;-79
2022/04/28 03:26:26;;;;;;;10.65;7.30;;;;;;;12.78;99.23;100781.22;5080865;28;20044;-83
2022/04/28 03:28:52;;;;;;;14.75;8.80;;;;;;;12.75;98.26;100782.97;5081866;28;20744;-80
2022/04/28 03:31:18;;;;;;;12.88;7.45;;;;;;;12.73;98.05;100780.34;5066291;28;20032;-80
2022/04/28 03:33:43;;;;;;;10.52;8.00;;;;;;;12.88;97.36;100764.50;5081741;28;20559;-77
2022/04/28 03:38:54;;;;;;;12.30;7.47;;;;;;;12.74;97.04;100712.78;5070355;28;20109;-76
2022/04/28 03:41:19;;;;;;;10.05;7.50;;;;;;;12.74;96.37;100712.78;5053180;28;20118;-76
2022/04/28 03:43:46;;;;;;;9.95;7.18;;;;;;;12.74;96.14;100718.06;5072216;28;20047;-84
2022/04/28 03:46:12;;;;;;;11.77;8.35;;;;;;;12.72;95.67;100747.00;5069961;28;20184;-78
2022/04/28 03:48:37;;;;;;;10.18;7.13;;;;;;;12.73;95.09;100724.19;5069532;28;20052;-76
2022/04/28 03:51:04;;;;;;;12.43;8.32;;;;;;;12.65;93.63;100705.78;5071888;28;20051;-79
2022/04/28 03:53:30;;;;;;;10.10;7.35;;;;;;;12.66;93.91;100711.03;5087807;28;20054;-77
2022/04/28 03:55:57;;;;;;;9.43;6.88;;;;;;;12.35;92.40;100710.25;5069436;28;20027;-77
2022/04/28 03:58:25;;;;;;;9.30;7.68;;;;;;;12.35;92.91;100699.72;5084288;28;20111;-80
2022/04/28 04:00:51;;;;;;;18.73;8.45;;;;;;;12.48;94.25;100729.53;5086146;28;20134;-76
2022/04/28 04:03:19;;;;;;;17.00;6.65;;;;;;;12.21;94.34;100673.44;5065077;28;20043;-80
2022/04/28 04:05:45;;;;;;;8.52;6.78;;;;;;;12.44;94.27;100686.53;5065393;28;20514;-84
2022/04/28 04:08:11;;;;;;;9.00;6.32;;;;;;;12.35;94.48;100652.38;5083771;28;20056;-78
2022/04/28 04:10:37;;;;;;;9.73;7.35;;;;;;;12.25;94.40;100635.75;5085019;28;20586;-78
2022/04/28 04:13:03;;;;;;;11.57;8.30;;;;;;;12.39;94.16;100626.94;5084218;28;20055;-77
2022/04/28 04:15:29;;;;;;;14.30;7.63;;;;;;;12.43;94.72;100652.31;5081080;28;20645;-77
2022/04/28 04:17:55;;;;;;;11.65;7.45;;;;;;;12.54;94.58;100674.22;5065930;28;20060;-76
2022/04/28 04:20:20;;;;;;;13.88;8.13;;;;;;;12.69;94.45;100710.16;5067357;28;20084;-76
2022/04/28 04:22:46;;;;;;;14.35;8.05;;;;;;;12.06;95.20;100681.41;5068171;28;20536;-83
2022/04/28 04:25:11;;;;;;;10.50;8.13;;;;;;;11.91;96.30;100681.41;5066773;28;20056;-83
2022/04/28 04:27:37;;;;;;;18.67;7.43;;;;;;;11.75;96.30;100706.78;5081050;28;20059;-79
2022/04/28 04:32:17;;;;;;;12.02;7.72;;;;;;;11.57;97.12;100697.16;5084504;28;20047;-76
2022/04/28 04:32:49;;;;;;;8.38;6.88;;;;;;;11.62;97.61;100717.31;5081369;28;20218;-76
2022/04/28 04:35:15;;;;;;;11.70;8.52;;;;;;;11.71;96.98;100699.81;5066643;28;20498;-80
2022/04/28 04:37:41;;;;;;;20.05;10.98;;;;;;;11.91;96.98;100741.88;5083206;28;20020;-85
2022/04/28 04:40:08;;;;;;;19.35;11.70;;;;;;;12.32;96.63;100730.44;5067576;28;20036;-79
2022/04/28 04:42:34;;;;;;;16.25;9.60;;;;;;;12.16;96.55;100698.91;5081727;28;20090;-77
2022/04/28 04:45:00;;;;;;;27.73;9.85;;;;;;;12.38;95.79;100712.88;5081781;28;20048;-76
2022/04/28 04:47:25;;;;;;;11.48;8.20;;;;;;;12.19;94.63;100688.34;5066075;28;20448;-77
2022/04/28 04:49:51;;;;;;;18.13;10.38;;;;;;;12.13;95.00;100683.13;5067753;28;20023;-76
2022/04/28 04:52:16;;;;;;;17.95;10.77;;;;;;;12.56;94.84;100740.03;5069086;28;20065;-76
2022/04/28 04:54:42;;;;;;;11.68;9.60;;;;;;;12.38;94.96;100719.91;5067745;28;20068;-81
2022/04/28 04:57:07;;;;;;;12.68;9.20;;;;;;;12.18;94.23;100719.94;5083131;28;20039;-75
2022/04/28 04:59:33;;;;;;;11.02;8.15;;;;;;;12.01;94.28;100712.06;5081478;28;20104;-83
2022/04/28 05:01:58;;;;;;;13.43;9.43;;;;;;;12.25;94.50;100733.09;5065676;28;20024;-83
2022/04/28 05:04:24;;;;;;;12.90;7.85;;;;;;;12.11;94.93;100726.09;5067604;28;20119;-79
2022/04/28 05:06:49;;;;;;;12.20;9.75;;;;;;;12.55;94.36;100731.28;5065881;28;20992;-77
2022/04/28 05:09:15;;;;;;;13.43;9.55;;;;;;;12.58;93.66;100717.22;5065229;28;20133;-82
2022/04/28 05:11:41;;;;;;;11.75;8.95;;;;;;;12.79;94.03;100727.66;5065187;28;20384;-77
2022/04/28 05:14:07;;;;;;;23.13;8.52;;;;;;;12.65;93.27;100716.31;5065332;28;20052;-75
2022/04/28 05:16:32;;;;;;;14.80;9.30;;;;;;;12.48;93.34;100721.63;5067791;28;20454;-75
2022/04/28 05:18:57;;;;;;;17.70;10.88;;;;;;;12.84;93.52;100731.16;5083644;28;20075;-76
2022/04/28 05:21:23;;;;;;;11.75;8.68;;;;;;;12.95;93.55;100738.16;5066487;28;20077;-77
2022/04/28 05:23:49;;;;;;;21.35;14.93;;;;;;;12.89;92.95;100725.88;5082589;28;20040;-78
2022/04/28 05:26:14;;;;;;;13.95;11.05;;;;;;;12.93;92.59;100755.72;5078809;28;20044;-80
2022/04/28 05:28:40;;;;;;;17.17;10.02;;;;;;;12.82;92.29;100724.13;5070920;28;20051;-78
2022/04/28 05:31:06;;;;;;;20.05;12.45;;;;;;;12.70;92.51;100738.22;5043367;28;20148;-83
2022/04/28 05:33:31;;;;;;;10.63;9.50;;;;;;;12.81;93.43;100754.88;5068847;28;20472;-79
2022/04/28 05:35:58;;;;;;;22.10;8.15;;;;;;;12.64;93.36;100718.09;5079233;28;20048;-76
2022/04/28 05:38:24;;;;;;;16.85;8.45;;;;;;;13.21;92.22;100786.31;5065208;28;20054;-76
2022/04/28 05:40:50;;;;;;;9.85;7.18;;;;;;;13.39;92.40;100773.94;5081815;28;20032;-76
2022/04/28 05:46:01;;;;;;;9.68;6.70;;;;;;;13.52;89.16;100779.13;5078040;28;20073;-75
2022/04/28 05:48:26;;;;;;;10.80;7.75;;;;;;;13.62;89.53;100765.91;5065976;28;20504;-79
2022/04/28 05:50:52;;;;;;;10.60;7.07;;;;;;;13.81;90.39;100798.28;5067510;28;20055;-80
2022/04/28 05:53:18;;;;;;;7.72;6.20;;;;;;;13.57;89.50;100784.38;5078442;28;20072;-75
2022/04/28 05:55:43;;;;;;;15.82;8.45;;;;;;;13.61;89.59;100787.88;5083802;28;20032;-77
2022/04/28 05:58:09;;;;;;;12.30;6.05;;;;;;;13.67;89.69;100798.38;5078950;28;20055;-77
2022/04/28 06:00:35;;;;;;;8.77;6.22;;;;;;;13.99;87.92;100816.63;5080106;28;20472;-76
2022/04/28 06:03:00;;;;;;;9.48;6.28;;;;;;;14.12;89.77;100820.94;5082546;28;20114;-78
2022/04/28 06:05:26;;;;;;;8.75;6.90;;;;;;;14.26;88.42;100822.59;5081362;28;20501;-78
2022/04/28 06:07:53;;;;;;;10.27;6.53;;;;;;;13.85;87.50;100800.03;5079477;28;20123;-76
2022/04/28 06:10:19;;;;;;;8.73;6.38;;;;;;;13.79;86.92;100829.06;5063495;28;20497;-87
2022/04/28 06:12:47;;;;;;;11.40;6.82;;;;;;;14.13;88.00;100838.50;5082041;28;20052;-77
2022/04/28 06:15:14;;;;;;;8.65;5.88;;;;;;;14.28;87.50;100826.97;5066722;28;20082;-77
2022/04/28 06:17:40;;;;;;;9.65;6.63;;;;;;;13.88;87.83;100818.47;5066695;28;20040;-87
2022/04/28 06:20:07;;;;;;;11.13;5.90;;;;;;;13.81;87.35;100851.91;5080242;28;20030;-80
2022/04/28 06:22:33;;;;;;;11.52;7.20;;;;;;;13.82;87.81;100827.31;5079858;28;20486;-77
2022/04/28 06:24:59;;;;;;;11.88;5.72;;;;;;;14.06;88.15;100854.41;5066514;28;20054;-80
2022/04/28 06:27:28;;;;;;;9.30;6.00;;;;;;;14.22;87.77;100858.69;5066281;28;20637;-77
2022/04/28 06:29:53;;;;;;;11.90;7.85;;;;;;;14.40;87.21;100869.97;5073496;28;20495;-76
2022/04/28 06:32:19;;;;;;;9.60;7.28;;;;;;;14.08;87.36;100829.75;5070349;28;20440;-75
2022/04/28 06:34:45;;;;;;;8.77;5.68;;;;;;;14.23;87.76;100862.19;5076395;28;20107;-82
2022/04/28 06:37:14;;;;;;;12.07;6.55;;;;;;;14.19;86.39;100865.72;5077215;28;20067;-75
2022/04/28 06:39:41;;;;;;;10.60;6.75;;;;;;;13.84;85.85;100846.63;5054971;28;20051;-76
2022/04/28 06:42:07;;;;;;;10.50;6.95;;;;;;;14.15;86.93;100878.09;5078605;28;20039;-77
2022/04/28 06:44:33;;;;;;;10.60;7.10;;;;;;;14.25;88.47;100873.59;5068603;28;20040;-76
2022/04/28 06:46:59;;;;;;;9.77;6.65;;;;;;;14.36;88.05;100885.84;5056600;28;20059;-87
2022/04/28 06:49:25;;;;;;;11.85;7.32;;;;;;;14.22;86.73;100871.88;5073888;28;20052;-81
2022/04/28 06:51:51;;;;;;;12.23;6.30;;;;;;;14.19;87.63;100844.59;5085372;28;20036;-88
2022/04/28 06:54:17;;;;;;;9.52;6.97;;;;;;;14.38;86.95;100827.75;5053750;28;20055;-89
2022/04/28 06:56:42;;;;;;;14.13;8.10;;;;;;;14.63;84.83;100820.47;5070092;28;20063;-82
2022/04/28 06:59:08;;;;;;;15.27;8.40;;;;;;;14.92;85.79;100843.09;5081947;28;20048;-80
2022/04/28 07:01:34;;;;;;;12.68;7.75;;;;;;;15.10;85.47;100845.53;5083692;28;20024;-82
2022/04/28 07:04:01;;;;;;;15.20;8.70;;;;;;;15.24;84.64;100839.19;5070079;28;20062;-81
2022/04/28 07:06:28;;;;;;;12.50;9.32;;;;;;;15.57;82.47;100889.03;5051801;28;20131;-81
2022/04/28 07:08:54;;;;;;;11.52;7.85;;;;;;;15.01;80.85;100843.00;5080331;28;20049;-82
2022/04/28 07:11:26;;;;;;;11.10;7.30;;;;;;;15.38;80.21;100877.81;5058433;28;20055;-90
2022/04/28 07:13:52;;;;;;;11.75;7.45;;;;;;;14.07;80.13;100853.50;5064204;28;20539;-81
2022/04/28 07:16:18;;;;;;;9.68;7.13;;;;;;;14.90;81.17;100852.81;5070936;28;20036;-83
2022/04/28 07:18:44;;;;;;;11.13;7.18;;;;;;;15.42;80.96;100865.41;5054277;28;20131;-85
2022/04/28 07:21:10;;;;;;;12.30;7.68;;;;;;;15.53;80.47;100874.09;5067091;28;20059;-81
2022/04/28 07:23:36;;;;;;;13.23;8.02;;;;;;;15.29;78.71;100846.19;5075452;28;22172;-84
2022/04/28 07:26:02;;;;;;;8.63;5.53;;;;;;;15.53;77.51;100902.31;5069215;28;20066;-88
2022/04/28 07:28:28;;;;;;;10.38;6.60;;;;;;;14.99;76.38;100850.06;5075937;28;20051;-83
2022/04/28 07:30:54;;;;;;;9.13;5.88;;;;;;;15.19;76.67;100865.69;5063941;28;20068;-87
2022/04/28 07:33:20;;;;;;;9.48;6.22;;;;;;;14.88;77.22;100857.22;5069374;28;20064;-88
2022/04/28 07:35:46;;;;;;;12.88;6.60;;;;;;;15.04;78.23;100865.88;5050281;28;20086;-85
2022/04/28 07:38:12;;;;;;;14.85;6.63;;;;;;;15.05;76.96;100860.53;5060323;28;20069;-81
2022/04/28 07:40:37;;;;;;;8.45;5.28;;;;;;;15.19;76.97;100911.53;5072949;28;20059;-83
2022/04/28 07:43:04;;;;;;;11.93;6.28;;;;;;;14.97;77.62;100883.56;5071831;28;20375;-84
2022/04/28 07:45:29;;;;;;;10.88;6.18;;;;;;;15.13;75.92;100886.91;5065683;28;20075;-80
2022/04/28 07:47:55;;;;;;;11.70;7.15;;;;;;;15.20;75.79;100878.03;5066136;28;20039;-88
2022/04/28 07:50:21;;;;;;;8.15;5.60;;;;;;;15.32;76.74;100896.38;5061986;28;20044;-86
2022/04/28 07:52:48;;;;;;;10.00;6.90;;;;;;;15.28;76.87;100913.16;5066036;28;20383;-85
2022/04/28 07:55:17;;;;;;;8.90;5.32;;;;;;;15.00;76.17;100894.09;5067506;28;20029;-87
2022/04/28 07:57:42;;;;;;;11.93;5.78;;;;;;;14.81;76.20;100879.31;5064180;28;20048;-88
2022/04/28 08:00:09;;;;;;;10.80;7.03;;;;;;;14.83;76.87;100890.75;5060848;28;20052;-88
2022/04/28 08:02:38;;;;;;;12.95;7.18;;;;;;;15.11;76.93;100929.22;5064196;28;20040;-80
2022/04/28 08:05:06;;;;;;;12.82;7.75;;;;;;;15.11;77.41;100936.28;5048490;28;20100;-80
2022/04/28 08:07:35;;;;;;;9.48;7.03;;;;;;;14.84;77.88;100889.84;5063852;28;20044;-82
2022/04/28 08:10:01;;;;;;;27.77;6.20;;;;;;;15.07;77.09;100923.97;5064695;28;20496;-88
2022/04/28 08:12:27;;;;;;;11.27;5.80;;;;;;;14.61;77.53;100884.78;5058727;28;20071;-79
2022/04/28 08:14:53;;;;;;;11.82;6.18;;;;;;;14.95;77.77;100901.19;5028844;28;20052;-84
2022/04/28 08:17:19;;;;;;;8.48;4.90;;;;;;;15.05;77.64;100928.41;5060244;28;20082;-90
2022/04/28 08:19:45;;;;;;;7.45;5.43;;;;;;;14.83;75.82;100899.53;5060456;28;20036;-83
2022/04/28 08:22:11;;;;;;;13.70;5.38;;;;;;;14.89;77.20;100923.28;5046105;28;20056;-87
2022/04/28 08:24:37;;;;;;;7.38;5.95;;;;;;;14.63;77.79;100894.44;5057362;28;20404;-85
2022/04/28 08:27:03;;;;;;;12.57;7.88;;;;;;;14.98;77.20;100922.28;5063563;28;20048;-87
2022/04/28 08:29:30;;;;;;;9.65;6.75;;;;;;;14.94;75.99;100884.47;5064449;28;20061;-85
2022/04/28 08:31:55;;;;;;;10.48;5.50;;;;;;;14.96;76.71;100901.19;5044909;28;20097;-84
2022/04/28 08:34:22;;;;;;;10.77;5.38;;;;;;;15.29;76.76;100900.81;5057395;28;20772;-81
2022/04/28 08:36:49;;;;;;;16.27;5.82;;;;;;;15.67;76.55;100912.72;5061171;28;20040;-84
2022/04/28 08:39:15;;;;;;;12.05;6.60;;;;;;;15.39;75.80;100921.84;5062117;28;20503;-81
2022/04/28 08:41:47;;;;;;;14.05;5.25;;;;;;;15.51;74.90;100930.53;5065756;28;20045;-80
2022/04/28 08:44:19;;;;;;;7.05;4.80;;;;;;;15.07;75.86;100938.06;5055527;28;20056;-79
2022/04/28 08:46:52;;;;;;;12.30;6.45;;;;;;;14.81;76.90;100943.59;5092900;28;20166;-83
2022/04/28 08:49:25;;;;;;;;;;;;;;;14.74;77.19;100923.41;5068517;28;20116;-83
2022/04/28 08:51:52;;;;;;;6.95;5.30;;;;;;;14.95;76.70;100917.91;5068043;28;19924;-85
2022/04/28 08:54:20;;;;;;;8.60;4.93;;;;;;;14.91;76.80;100900.38;5063921;28;20067;-83
2022/04/28 08:56:47;;;;;;;6.07;4.13;;;;;;;14.95;76.87;100907.34;5051293;28;20507;-82
2022/04/28 08:59:15;;;;;;;6.70;4.60;;;;;;;15.01;75.90;100903.78;5060851;28;20081;-85
2022/04/28 09:01:42;;;;;;;9.20;5.28;;;;;;;14.91;76.09;100925.88;5050991;28;20063;-84
2022/04/28 09:04:11;;;;;;;7.55;5.68;;;;;;;15.10;75.36;100951.28;5066072;28;20130;-82
2022/04/28 09:06:40;;;;;;;8.77;4.93;;;;;;;15.03;76.45;100939.00;5031993;28;20051;-83
2022/04/28 09:09:13;;;;;;;10.13;5.28;;;;;;;14.56;76.57;100904.19;5062935;28;20044;-77
2022/04/28 09:11:40;;;;;;;;;;;;;;;15.05;77.39;100939.84;5050389;28;20069;-81
2022/04/28 09:14:18;;;;;;;12.00;6.68;;;;;;;14.99;76.67;100926.69;5062095;28;19916;-84
2022/04/28 09:17:10;;;;;;;7.38;4.68;;;;;;;15.06;75.84;100949.53;5043367;28;20040;-84
2022/04/28 09:19:39;;;;;;;8.20;5.57;;;;;;;14.96;75.71;100914.41;5052367;28;20045;-85
2022/04/28 09:22:13;;;;;;;9.30;4.72;;;;;;;15.34;76.16;100941.31;5060725;28;20044;-85
2022/04/28 09:24:45;;;;;;;9.60;5.93;;;;;;;15.32;76.24;100951.03;5047376;28;20052;-83
2022/04/28 09:27:12;;;;;;;10.02;6.03;;;;;;;15.10;75.68;100923.94;5046209;28;20060;-81
2022/04/28 09:29:44;;;;;;;8.80;5.50;;;;;;;15.09;75.51;100922.19;5044359;28;20181;-83
2022/04/28 09:32:13;;;;;;;6.40;4.90;;;;;;;15.34;75.59;100922.81;5039300;28;20045;-83
2022/04/28 09:34:49;;;;;;;8.63;5.50;;;;;;;15.29;75.87;100922.88;5056412;28;20024;-84
2022/04/28 09:37:22;;;;;;;9.02;5.63;;;;;;;15.64;73.84;100963.91;5040713;28;20048;-82
2022/04/28 09:42:42;;;;;;;8.20;4.90;;;;;;;15.33;75.30;100947.50;5045998;28;20129;-82
2022/04/28 09:45:10;;;;;;;8.63;4.90;;;;;;;15.47;76.21;100957.91;5055499;28;20040;-82
2022/04/28 09:47:36;;;;;;;13.65;5.72;;;;;;;15.06;74.88;100916.94;5056903;28;20055;-81
2022/04/28 09:50:15;;;;;;;8.20;4.50;;;;;;;15.44;75.32;100965.91;5045036;28;20380;-82
2022/04/28 09:52:53;;;;;;;11.20;5.60;;;;;;;15.46;75.11;100964.97;5054161;28;20131;-83
2022/04/28 09:55:24;;;;;;;11.10;5.78;;;;;;;15.50;76.58;100977.28;5054477;28;20044;-83
2022/04/28 09:57:50;;;;;;;13.18;5.78;;;;;;;15.50;75.89;100973.75;5041401;28;20079;-81
2022/04/28 10:00:16;;;;;;;9.52;6.18;;;;;;;15.44;76.50;100974.69;5042316;28;20045;-83
2022/04/28 10:02:43;;;;;;;8.05;5.43;;;;;;;15.01;75.72;100932.84;5055648;28;20049;-83
2022/04/28 10:05:10;;;;;;;14.00;5.53;;;;;;;15.44;75.59;100968.53;5058064;28;20040;-78
2022/04/28 10:07:36;;;;;;;17.02;6.00;;;;;;;15.45;76.59;100971.16;5058320;28;20040;-79
2022/04/28 10:10:04;;;;;;;11.63;6.25;;;;;;;15.23;76.83;100951.13;5038008;28;20040;-79
2022/04/28 10:12:31;;;;;;;13.88;6.85;;;;;;;15.11;75.42;100912.50;5070350;28;20500;-78
2022/04/28 10:15:00;;;;;;;7.60;5.68;;;;;;;15.37;76.46;100951.84;5079251;28;20072;-79
2022/04/28 10:17:44;;;;;;;12.55;6.53;;;;;;;15.27;76.41;100960.78;5064033;28;20078;-79
2022/04/28 10:20:16;;;;;;;;;;;;;;;15.02;77.47;100965.44;5064771;28;20046;-80
2022/04/28 10:22:42;;;;;;;14.40;5.97;;;;;;;14.86;78.67;100946.19;5082989;28;19931;-81
2022/04/28 10:33:51;;;;;;;;;;;;;;;14.91;83.74;100973.44;5085541;28;20086;-82
2022/04/28 10:36:21;;;;;;;11.98;6.53;;;;;;;14.89;85.00;100965.56;5075320;28;20048;-84
2022/04/28 10:39:07;;;;;;;10.23;7.10;;;;;;;14.52;84.75;100952.63;5067210;28;20048;-85
2022/04/28 10:41:34;;;;;;;11.32;7.13;;;;;;;14.35;88.09;100944.81;5067013;28;20520;-84
2022/04/28 10:44:00;;;;;;;14.07;8.10;;;;;;;14.60;86.63;100962.28;5058990;28;20043;-83
2022/04/28 10:46:32;;;;;;;12.57;6.50;;;;;;;14.24;85.57;100957.22;5069362;28;20169;-80
2022/04/28 10:49:05;;;;;;;13.07;7.63;;;;;;;14.56;87.28;100951.75;5075260;28;20055;-82
2022/04/28 10:51:32;;;;;;;16.63;8.05;;;;;;;14.76;87.46;100967.41;5068947;28;20652;-83
2022/04/28 10:54:14;;;;;;;11.10;7.45;;;;;;;14.60;88.62;100978.13;5044898;28;20073;-82
2022/04/28 10:56:39;;;;;;;16.40;7.35;;;;;;;14.56;88.15;100962.31;5065058;28;20078;-82
2022/04/28 10:59:32;;;;;;;17.23;9.75;;;;;;;14.76;87.35;100963.91;5081690;28;20119;-82
2022/04/28 11:02:10;;;;;;;10.30;8.52;;;;;;;14.96;87.30;100974.28;5078141;28;20088;-81
2022/04/28 11:04:36;;;;;;;18.00;11.60;;;;;;;14.64;87.77;100945.53;5082938;28;20151;-81
2022/04/28 11:07:10;;;;;;;18.63;11.27;;;;;;;14.27;87.92;100965.09;5066345;28;20502;-83
2022/04/28 11:09:55;;;;;;;13.77;11.00;;;;;;;14.51;90.33;100966.69;5049502;28;20056;-81
2022/04/28 11:12:45;;;;;;;16.90;11.80;;;;;;;14.67;89.72;100937.56;5061232;28;20060;-81
2022/04/28 11:15:14;;;;;;;32.63;11.32;;;;;;;15.10;89.82;100979.44;5060396;28;20048;-81
2022/04/28 11:17:44;;;;;;;17.55;11.20;;;;;;;15.25;89.59;100979.31;5060371;28;20039;-82
2022/04/28 11:20:16;;;;;;;14.00;9.38;;;;;;;14.94;87.86;100941.75;5045307;28;20051;-82
2022/04/28 11:22:42;;;;;;;25.23;9.05;;;;;;;14.72;85.80;100941.91;5048740;28;20043;-82
2022/04/28 11:25:16;;;;;;;11.15;9.60;;;;;;;14.94;85.79;100942.59;5064799;28;20509;-82
2022/04/28 11:27:46;;;;;;;15.23;10.48;;;;;;;14.65;85.08;100929.63;5059490;28;20048;-83
2022/04/28 11:30:17;;;;;;;16.58;9.30;;;;;;;15.08;nan;100974.19;5058379;28;20110;-80
2022/04/28 11:32:57;;;;;;;11.13;7.95;;;;;;;14.64;86.44;100929.66;5065100;28;20044;-82
2022/04/28 11:35:30;;;;;;;11.73;8.57;;;;;;;15.12;86.35;100964.44;5029031;28;20152;-83
2022/04/28 11:37:56;;;;;;;11.55;9.07;;;;;;;15.05;86.11;100954.81;5057092;28;20040;-82
2022/04/28 11:40:24;;;;;;;12.73;8.05;;;;;;;14.76;86.78;100919.84;5061385;28;20109;-82
2022/04/28 11:42:58;;;;;;;15.40;11.02;;;;;;;15.12;87.26;100965.31;5059489;28;20456;-82
2022/04/28 11:45:26;;;;;;;11.25;9.00;;;;;;;15.14;86.83;100966.19;5061852;28;20052;-82
2022/04/28 11:47:53;;;;;;;11.68;9.57;;;;;;;15.06;87.14;100968.03;5044363;28;20080;-82
2022/04/28 11:50:24;;;;;;;14.90;9.70;;;;;;;15.19;86.59;100971.41;5058477;28;20044;-81
2022/04/28 11:53:05;;;;;;;25.08;11.48;;;;;;;15.24;85.82;100967.00;5061321;28;20052;-83